Time;durP1;ratioP1;P1;durP2;ratioP2;P2;SDS_P1;SDS_P2;PMS_P1;PMS_P2;Temp;Humidity;BMP_temperature;BMP_pressure;BME280_temperature;BME280_humidity;BME280_pressure;Samples;Min_cycle;Max_cycle;Signal;HPM_P1;HPM_P2
2023/06/08 04:30:41;;;;;;;7.10;5.20;;;21.30;51.90;;;;;;5786787;23;20180;-78
2023/06/08 04:33:07;;;;;;;7.82;5.13;;;21.30;52.00;;;;;;4974905;28;20511;-78
2023/06/08 04:35:33;;;;;;;8.27;4.97;;;21.30;51.70;;;;;;4988507;28;21901;-79
2023/06/08 04:37:58;;;;;;;7.28;5.70;;;21.20;51.80;;;;;;4981756;28;20031;-78
2023/06/08 04:40:25;;;;;;;6.95;5.07;;;21.30;51.40;;;;;;4976722;28;20503;-78
2023/06/08 04:42:51;;;;;;;8.20;5.20;;;21.20;51.50;;;;;;4998936;28;20095;-78
2023/06/08 04:45:18;;;;;;;7.35;5.13;;;21.30;51.50;;;;;;4967395;28;20031;-78
2023/06/08 04:47:45;;;;;;;6.43;5.35;;;21.30;51.70;;;;;;4974893;28;20512;-78
2023/06/08 04:50:10;;;;;;;6.32;5.18;;;21.20;50.90;;;;;;4974921;28;20695;-78
2023/06/08 04:52:45;;;;;;;8.43;4.82;;;21.30;51.30;;;;;;4975203;28;20101;-78
2023/06/08 04:55:13;;;;;;;6.07;4.80;;;21.30;50.80;;;;;;4967299;28;20038;-77
2023/06/08 04:57:42;;;;;;;6.30;4.95;;;21.30;51.40;;;;;;4994179;28;20407;-80
2023/06/08 05:00:09;;;;;;;5.07;4.03;;;21.30;51.00;;;;;;4994125;28;20041;-80
2023/06/08 05:02:36;;;;;;;6.05;5.00;;;21.30;51.30;;;;;;4969126;28;20025;-81
2023/06/08 05:05:03;;;;;;;7.07;5.30;;;21.20;51.10;;;;;;4983875;28;20061;-80
2023/06/08 05:07:28;;;;;;;8.38;4.97;;;21.30;51.10;;;;;;4976767;28;20023;-79
2023/06/08 05:09:56;;;;;;;6.78;4.72;;;21.30;51.40;;;;;;4977877;28;20032;-80
2023/06/08 05:12:22;;;;;;;6.85;4.70;;;21.30;51.20;;;;;;4979658;28;20030;-82
2023/06/08 05:14:47;;;;;;;6.50;5.03;;;21.40;51.00;;;;;;4996819;28;20026;-83
2023/06/08 05:17:13;;;;;;;7.88;4.75;;;21.50;50.80;;;;;;4997496;28;20088;-77
2023/06/08 05:19:39;;;;;;;6.10;4.97;;;21.60;50.70;;;;;;4987844;28;20022;-75
2023/06/08 05:22:05;;;;;;;7.13;4.80;;;21.60;50.80;;;;;;4995524;28;20473;-75
2023/06/08 05:24:30;;;;;;;6.07;4.47;;;21.70;50.70;;;;;;4996059;28;20038;-75
2023/06/08 05:26:56;;;;;;;8.25;5.60;;;21.70;51.00;;;;;;4997077;28;20030;-75
2023/06/08 05:29:22;;;;;;;5.18;4.50;;;21.70;50.50;;;;;;4996972;28;20030;-75
2023/06/08 05:31:49;;;;;;;7.18;4.88;;;21.80;50.50;;;;;;4996954;28;20061;-76
2023/06/08 05:34:14;;;;;;;6.30;4.93;;;21.80;50.50;;;;;;4990226;28;20029;-76
2023/06/08 05:36:40;;;;;;;6.97;5.15;;;21.80;50.30;;;;;;4989580;28;20026;-76
2023/06/08 05:39:06;;;;;;;7.47;4.70;;;21.80;50.50;;;;;;4977705;28;20151;-76
2023/06/08 05:41:31;;;;;;;6.70;5.07;;;21.90;50.10;;;;;;4989516;28;20096;-76
2023/06/08 05:43:57;;;;;;;5.47;4.60;;;21.90;49.90;;;;;;4987949;28;20046;-77
2023/06/08 05:46:22;;;;;;;7.07;5.30;;;21.80;49.90;;;;;;4984120;28;20035;-76
2023/06/08 05:48:48;;;;;;;5.78;4.82;;;21.80;50.30;;;;;;4981606;28;20081;-76
2023/06/08 05:51:14;;;;;;;7.32;4.95;;;21.80;50.20;;;;;;4986171;28;20109;-76
2023/06/08 05:53:40;;;;;;;7.93;5.25;;;21.90;50.40;;;;;;4977347;28;20038;-77
2023/06/08 05:56:05;;;;;;;6.78;5.22;;;21.90;50.50;;;;;;4977315;28;20034;-77
2023/06/08 05:58:31;;;;;;;8.13;5.25;;;21.90;50.60;;;;;;4977682;28;20125;-79
2023/06/08 06:00:58;;;;;;;7.78;4.93;;;21.80;50.60;;;;;;4970369;28;20065;-78
2023/06/08 06:03:24;;;;;;;6.20;5.00;;;21.80;50.80;;;;;;4985728;28;20030;-78
2023/06/08 06:05:50;;;;;;;7.93;5.28;;;21.80;50.80;;;;;;4991428;28;20104;-78
2023/06/08 06:08:15;;;;;;;7.35;5.18;;;21.90;50.80;;;;;;4986134;28;20025;-78
2023/06/08 06:10:41;;;;;;;7.63;5.43;;;21.80;51.00;;;;;;4977844;28;20023;-78
2023/06/08 06:13:07;;;;;;;8.13;5.18;;;21.80;51.20;;;;;;4959563;28;20038;-78
2023/06/08 06:15:32;;;;;;;6.57;5.43;;;21.80;51.00;;;;;;4965980;28;20093;-78
2023/06/08 06:17:59;;;;;;;8.20;5.30;;;21.80;51.00;;;;;;4975365;28;20041;-78
2023/06/08 06:20:27;;;;;;;8.32;4.93;;;21.80;51.30;;;;;;4986086;28;20404;-78
2023/06/08 06:22:53;;;;;;;6.70;5.22;;;21.90;51.00;;;;;;4994503;28;20554;-78
2023/06/08 06:25:18;;;;;;;7.43;5.30;;;22.00;51.10;;;;;;4980711;28;20026;-79
2023/06/08 06:27:44;;;;;;;5.93;4.80;;;22.10;50.70;;;;;;4976608;28;20058;-79
2023/06/08 06:30:10;;;;;;;7.15;5.07;;;22.10;50.40;;;;;;4990726;28;20432;-79
2023/06/08 06:32:36;;;;;;;7.30;4.97;;;22.20;50.40;;;;;;4995552;28;20034;-79
2023/06/08 06:35:02;;;;;;;7.57;5.07;;;22.30;49.90;;;;;;4994140;28;20077;-79
2023/06/08 06:37:34;;;;;;;6.50;4.90;;;22.40;50.10;;;;;;4972419;28;20026;-79
2023/06/08 06:40:04;;;;;;;6.50;4.93;;;22.40;50.20;;;;;;4960383;28;20027;-79
2023/06/08 06:42:30;;;;;;;6.22;4.93;;;22.50;49.60;;;;;;4979440;28;20035;-79
2023/06/08 06:45:00;;;;;;;6.55;4.88;;;22.50;49.20;;;;;;4997339;28;20045;-80
2023/06/08 06:47:25;;;;;;;7.18;4.95;;;22.60;49.70;;;;;;4977443;28;20122;-77
2023/06/08 06:49:51;;;;;;;7.57;5.47;;;22.60;48.80;;;;;;4977381;28;20062;-81
2023/06/08 06:52:17;;;;;;;9.48;5.00;;;22.70;48.70;;;;;;4992622;28;20023;-80
2023/06/08 06:54:42;;;;;;;7.28;5.30;;;22.90;48.30;;;;;;4976985;28;20034;-76
2023/06/08 06:57:08;;;;;;;8.48;5.13;;;23.00;48.30;;;;;;4984697;28;20082;-76
2023/06/08 06:59:34;;;;;;;8.40;6.22;;;23.20;48.00;;;;;;4980768;28;20031;-78
2023/06/08 07:02:00;;;;;;;6.10;4.75;;;23.30;47.30;;;;;;4969971;28;20110;-76
2023/06/08 07:04:26;;;;;;;7.47;4.68;;;23.30;47.50;;;;;;4975165;28;20493;-76
2023/06/08 07:06:52;;;;;;;8.52;4.88;;;23.30;47.70;;;;;;4983801;28;20026;-76
2023/06/08 07:09:21;;;;;;;6.95;4.75;;;23.30;47.80;;;;;;4978528;28;20465;-74
2023/06/08 07:11:47;;;;;;;7.45;5.63;;;23.30;46.90;;;;;;4977638;28;20026;-76
2023/06/08 07:14:14;;;;;;;8.52;4.88;;;23.30;47.70;;;;;;4979897;28;20031;-74
2023/06/08 07:16:39;;;;;;;7.28;4.90;;;23.30;47.20;;;;;;4976644;28;20015;-73
2023/06/08 07:19:05;;;;;;;9.70;5.22;;;23.30;47.10;;;;;;4984872;28;20097;-74
2023/06/08 07:21:31;;;;;;;7.60;5.22;;;23.20;47.00;;;;;;4995493;28;20030;-75
2023/06/08 07:23:57;;;;;;;7.55;5.03;;;23.30;47.20;;;;;;4987888;28;20066;-76
2023/06/08 07:26:23;;;;;;;7.68;4.65;;;23.30;47.40;;;;;;4979209;28;20018;-77
2023/06/08 07:28:53;;;;;;;7.35;5.22;;;23.50;47.20;;;;;;4993761;28;20768;-76
2023/06/08 07:31:20;;;;;;;7.03;4.45;;;23.60;46.80;;;;;;4963391;28;20050;-75
2023/06/08 07:33:45;;;;;;;6.45;4.90;;;23.80;46.10;;;;;;4956392;28;20047;-76
2023/06/08 07:36:12;;;;;;;6.80;4.85;;;24.20;45.90;;;;;;4968196;28;20031;-76
2023/06/08 07:38:37;;;;;;;9.35;5.20;;;24.40;45.10;;;;;;4978870;28;20034;-76
2023/06/08 07:41:03;;;;;;;6.50;5.20;;;25.00;42.60;;;;;;4961559;28;20027;-76
2023/06/08 07:43:28;;;;;;;7.30;4.88;;;25.80;42.00;;;;;;4968484;28;20031;-73
2023/06/08 07:45:54;;;;;;;6.68;5.05;;;26.90;38.80;;;;;;4960030;29;20469;-73
2023/06/08 07:48:20;;;;;;;5.53;4.70;;;28.80;36.20;;;;;;4958653;29;20023;-74
2023/06/08 07:50:46;;;;;;;6.47;4.43;;;31.40;33.70;;;;;;4963426;28;20189;-74
2023/06/08 07:53:12;;;;;;;7.70;4.82;;;33.40;30.20;;;;;;4964330;28;20031;-75
2023/06/08 07:55:38;;;;;;;5.55;4.53;;;35.00;28.80;;;;;;4961552;28;20023;-75
2023/06/08 07:58:04;;;;;;;6.80;4.95;;;36.10;26.70;;;;;;4979398;28;20091;-75
2023/06/08 08:00:31;;;;;;;7.57;4.70;;;36.80;24.90;;;;;;4978243;28;20031;-74
2023/06/08 08:02:57;;;;;;;7.72;4.80;;;37.20;25.50;;;;;;4978033;28;20033;-74
2023/06/08 08:05:22;;;;;;;5.65;4.40;;;37.80;24.50;;;;;;4963664;28;20035;-75
2023/06/08 08:07:48;;;;;;;6.85;4.68;;;37.90;24.50;;;;;;4979364;28;20410;-75
2023/06/08 08:10:14;;;;;;;5.47;4.90;;;38.60;24.30;;;;;;4970371;28;20031;-75
2023/06/08 08:12:42;;;;;;;7.05;4.45;;;39.10;24.10;;;;;;4959799;29;20061;-75
2023/06/08 08:15:08;;;;;;;7.45;4.65;;;39.60;23.80;;;;;;4974574;28;20397;-75
2023/06/08 08:17:33;;;;;;;5.90;4.65;;;39.80;23.00;;;;;;4959823;28;20031;-74
2023/06/08 08:19:59;;;;;;;6.60;5.13;;;39.90;22.20;;;;;;4959567;28;20024;-74
2023/06/08 08:22:25;;;;;;;5.05;4.55;;;40.30;21.80;;;;;;4960892;28;20031;-74
2023/06/08 08:24:50;;;;;;;8.13;4.80;;;40.10;22.50;;;;;;4978849;28;20429;-74
2023/06/08 08:27:17;;;;;;;7.55;5.10;;;40.20;22.30;;;;;;4979092;28;20035;-74
2023/06/08 08:29:43;;;;;;;5.43;4.82;;;40.30;22.50;;;;;;4977525;28;20089;-74
2023/06/08 08:32:09;;;;;;;5.53;4.15;;;39.80;22.70;;;;;;4994665;28;20046;-74
2023/06/08 08:34:35;;;;;;;8.48;4.82;;;40.30;22.80;;;;;;4998008;28;20030;-75
2023/06/08 08:37:00;;;;;;;7.82;4.80;;;40.30;22.10;;;;;;4998025;28;20022;-74
2023/06/08 08:39:26;;;;;;;7.05;4.45;;;39.80;22.70;;;;;;4966656;28;20094;-74
2023/06/08 08:41:54;;;;;;;4.75;4.25;;;39.60;23.40;;;;;;4978422;28;20037;-74
2023/06/08 08:44:21;;;;;;;5.80;4.57;;;39.60;23.30;;;;;;5011816;28;20029;-74
2023/06/08 08:46:49;;;;;;;7.18;4.70;;;39.40;23.50;;;;;;5017581;28;20038;-74
2023/06/08 08:49:16;;;;;;;5.78;4.32;;;38.10;23.70;;;;;;4987736;28;20038;-74
2023/06/08 08:51:52;;;;;;;7.38;4.30;;;36.80;24.10;;;;;;4978583;28;20031;-74
2023/06/08 08:54:18;;;;;;;4.95;4.40;;;36.40;25.70;;;;;;4978893;28;20469;-74
2023/06/08 08:56:44;;;;;;;8.18;4.38;;;37.10;24.70;;;;;;4977891;28;20074;-74
2023/06/08 08:59:11;;;;;;;9.65;4.95;;;36.90;25.40;;;;;;4961357;28;20054;-74
2023/06/08 09:01:40;;;;;;;7.53;4.65;;;36.40;24.60;;;;;;4978286;28;20027;-74
2023/06/08 09:04:07;;;;;;;5.88;4.35;;;36.30;25.50;;;;;;4980377;28;20054;-74
2023/06/08 09:06:32;;;;;;;6.32;4.45;;;36.60;26.80;;;;;;4991955;28;20100;-74
2023/06/08 09:08:58;;;;;;;5.47;4.55;;;37.40;25.90;;;;;;4997576;28;20046;-74
2023/06/08 09:11:25;;;;;;;5.45;4.60;;;37.50;23.90;;;;;;4997270;28;20101;-74
2023/06/08 09:14:07;;;;;;;6.63;4.60;;;37.10;24.20;;;;;;4996274;28;20523;-74
2023/06/08 09:16:43;;;;;;;5.63;4.95;;;36.90;24.80;;;;;;4979780;28;20022;-74
2023/06/08 09:19:10;;;;;;;7.57;5.30;;;37.00;24.20;;;;;;4979928;28;20022;-74
2023/06/08 09:21:35;;;;;;;6.57;4.90;;;37.60;23.70;;;;;;4979871;28;20050;-74
2023/06/08 09:24:06;;;;;;;7.18;4.93;;;37.90;23.60;;;;;;4996399;28;20034;-74
2023/06/08 09:26:33;;;;;;;6.93;4.65;;;38.40;23.20;;;;;;4996801;28;20023;-74
2023/06/08 09:29:03;;;;;;;5.10;4.60;;;38.70;23.80;;;;;;4997199;28;20037;-74
2023/06/08 09:31:31;;;;;;;5.88;4.97;;;38.90;22.60;;;;;;4978806;28;20128;-74
2023/06/08 09:34:08;;;;;;;6.32;4.85;;;38.90;22.30;;;;;;4996669;28;20034;-74
2023/06/08 09:36:38;;;;;;;5.60;4.50;;;39.40;23.80;;;;;;4978853;28;20116;-74
2023/06/08 09:39:07;;;;;;;6.03;4.70;;;39.60;23.60;;;;;;4997159;28;20026;-74
2023/06/08 09:41:36;;;;;;;5.82;4.93;;;40.20;22.60;;;;;;4979758;28;20026;-74
2023/06/08 09:44:15;;;;;;;5.85;4.95;;;40.50;23.10;;;;;;5007238;28;20022;-74
2023/06/08 09:46:45;;;;;;;7.00;5.28;;;40.60;21.90;;;;;;4996416;28;20030;-74
2023/06/08 09:49:13;;;;;;;5.80;5.20;;;40.20;21.40;;;;;;4996079;28;20054;-74
2023/06/08 09:51:50;;;;;;;6.78;5.03;;;39.80;22.70;;;;;;4996756;28;20030;-73
2023/06/08 09:54:17;;;;;;;5.25;4.63;;;40.10;23.10;;;;;;4981777;28;20042;-78
2023/06/08 09:56:52;;;;;;;7.28;4.80;;;39.40;22.40;;;;;;4981717;28;20062;-79
2023/06/08 09:59:21;;;;;;;6.95;4.85;;;39.10;22.50;;;;;;4977018;28;20054;-75
2023/06/08 10:01:59;;;;;;;6.85;5.20;;;39.10;23.70;;;;;;4977046;28;20027;-74
2023/06/08 10:04:26;;;;;;;7.28;4.72;;;39.10;23.50;;;;;;4976914;28;20652;-74
2023/06/08 10:07:04;;;;;;;5.15;4.65;;;38.80;24.20;;;;;;4993396;28;20157;-74
2023/06/08 10:09:34;;;;;;;7.05;4.90;;;39.40;24.10;;;;;;4978703;28;20030;-74
2023/06/08 10:12:01;;;;;;;6.88;4.88;;;39.30;22.90;;;;;;4989844;28;20508;-74
2023/06/08 10:14:27;;;;;;;8.63;5.10;;;39.00;22.50;;;;;;4976923;28;20121;-74
2023/06/08 10:16:55;;;;;;;7.15;4.97;;;38.80;22.60;;;;;;4984123;28;20030;-74
2023/06/08 10:19:21;;;;;;;6.18;4.80;;;38.40;22.90;;;;;;4995780;28;20489;-74
2023/06/08 10:21:52;;;;;;;5.90;4.40;;;38.00;23.20;;;;;;4996504;28;20026;-74
2023/06/08 10:24:19;;;;;;;;;;;37.30;24.00;;;;;;4981260;28;20061;-74
2023/06/08 10:26:45;;;;;;;7.45;4.90;;;37.30;25.20;;;;;;4975473;28;19906;-74
2023/06/08 10:29:11;;;;;;;5.38;4.47;;;37.30;26.00;;;;;;4959670;28;20118;-73
2023/06/08 10:31:41;;;;;;;4.90;4.40;;;37.40;24.90;;;;;;4959329;28;20109;-74
2023/06/08 10:34:09;;;;;;;5.65;4.47;;;37.20;23.60;;;;;;4977066;28;20060;-74
2023/06/08 10:36:36;;;;;;;6.30;4.32;;;36.40;24.60;;;;;;4990823;28;20037;-74
2023/06/08 10:39:10;;;;;;;5.43;4.00;;;35.30;24.80;;;;;;4994744;28;20018;-74
2023/06/08 10:41:38;;;;;;;6.72;4.55;;;34.60;26.70;;;;;;4979110;28;20030;-74
2023/06/08 10:44:04;;;;;;;7.00;4.43;;;33.80;27.20;;;;;;5005469;28;20097;-74
2023/06/08 10:46:43;;;;;;;6.57;4.35;;;33.10;27.70;;;;;;5015124;28;20084;-74
2023/06/08 10:49:08;;;;;;;6.13;4.38;;;32.70;28.80;;;;;;4991481;28;20037;-75
2023/06/08 10:51:43;;;;;;;6.72;4.60;;;32.50;29.10;;;;;;4996069;28;20105;-74
2023/06/08 10:54:09;;;;;;;5.32;4.63;;;32.20;29.40;;;;;;4978245;28;20504;-75
2023/06/08 10:56:46;;;;;;;7.88;4.90;;;32.00;29.90;;;;;;4995584;28;20026;-74
2023/06/08 10:59:12;;;;;;;5.70;4.38;;;31.80;29.50;;;;;;4980482;28;20029;-74
2023/06/08 11:01:38;;;;;;;6.82;4.50;;;32.00;30.40;;;;;;4980379;28;20023;-77
2023/06/08 11:04:05;;;;;;;9.88;4.50;;;32.00;29.30;;;;;;4995390;28;20338;-76
2023/06/08 11:06:32;;;;;;;6.13;4.10;;;32.10;30.00;;;;;;4995893;28;20024;-74
2023/06/08 11:08:58;;;;;;;7.43;4.63;;;32.20;29.70;;;;;;4993388;28;20034;-74
2023/06/08 11:11:25;;;;;;;5.75;4.35;;;32.10;30.20;;;;;;4970869;28;20065;-75
2023/06/08 11:13:52;;;;;;;5.95;4.55;;;31.90;30.10;;;;;;4984226;28;20062;-75
2023/06/08 11:16:21;;;;;;;5.65;4.50;;;31.80;30.50;;;;;;4980218;28;20079;-75
2023/06/08 11:18:46;;;;;;;5.93;4.70;;;31.90;31.80;;;;;;4980529;28;20566;-75
2023/06/08 11:21:12;;;;;;;6.43;4.75;;;31.90;32.20;;;;;;4962416;28;20153;-74
2023/06/08 11:23:38;;;;;;;6.85;4.70;;;31.90;31.10;;;;;;4980756;28;20504;-75
2023/06/08 11:26:03;;;;;;;6.57;4.85;;;32.20;31.80;;;;;;4999644;28;20411;-74
2023/06/08 11:28:29;;;;;;;7.40;4.57;;;32.20;30.20;;;;;;4999304;28;20030;-74
2023/06/08 11:30:55;;;;;;;6.25;4.40;;;32.30;32.70;;;;;;4994515;28;20532;-74
2023/06/08 11:33:21;;;;;;;5.55;4.80;;;32.30;30.70;;;;;;4979578;28;20035;-73
2023/06/08 11:35:53;;;;;;;9.95;5.00;;;32.20;30.50;;;;;;4991783;28;20350;-74
2023/06/08 11:38:22;;;;;;;6.75;4.82;;;32.10;30.50;;;;;;4979312;28;20029;-74
2023/06/08 11:40:48;;;;;;;5.60;4.63;;;32.10;31.00;;;;;;4990843;28;20035;-74
2023/06/08 11:43:13;;;;;;;6.50;4.57;;;32.30;31.10;;;;;;4994940;28;20064;-74
2023/06/08 11:45:39;;;;;;;7.03;4.70;;;32.00;29.60;;;;;;5018508;28;20064;-75
2023/06/08 11:48:06;;;;;;;6.93;4.85;;;31.90;30.90;;;;;;5018685;28;20029;-73
2023/06/08 11:50:32;;;;;;;6.32;4.40;;;32.00;30.70;;;;;;5003061;28;20413;-75
2023/06/08 11:53:00;;;;;;;7.65;4.80;;;31.90;32.10;;;;;;4962214;28;20023;-74
2023/06/08 11:55:26;;;;;;;5.78;4.40;;;32.10;32.40;;;;;;4979661;28;20120;-74
2023/06/08 11:57:59;;;;;;;6.32;4.43;;;32.10;31.30;;;;;;4979369;28;20023;-75
2023/06/08 12:00:27;;;;;;;6.45;4.70;;;32.20;31.20;;;;;;4962222;28;20019;-74
2023/06/08 12:02:57;;;;;;;7.63;4.72;;;32.30;32.20;;;;;;4991227;28;20030;-74
2023/06/08 12:05:24;;;;;;;6.65;4.10;;;32.40;30.40;;;;;;4998314;28;20031;-74
2023/06/08 12:08:01;;;;;;;8.57;4.82;;;32.20;30.90;;;;;;4988932;28;20035;-74
2023/06/08 12:10:46;;;;;;;6.03;4.57;;;32.10;30.60;;;;;;4978960;28;20037;-75
2023/06/08 12:13:13;;;;;;;7.57;4.60;;;31.90;29.10;;;;;;4979443;28;20023;-74
2023/06/08 12:15:45;;;;;;;5.93;4.57;;;31.40;29.40;;;;;;4978693;28;20031;-74
2023/06/08 12:18:12;;;;;;;7.50;4.80;;;31.40;30.80;;;;;;4979174;28;20019;-74
2023/06/08 12:20:39;;;;;;;7.10;4.63;;;31.60;30.30;;;;;;4979341;28;20525;-74
2023/06/08 12:23:05;;;;;;;7.13;4.78;;;31.60;30.80;;;;;;4978596;28;20077;-74
2023/06/08 12:25:31;;;;;;;5.55;4.50;;;31.70;30.50;;;;;;4979060;28;20030;-74
2023/06/08 12:27:58;;;;;;;6.13;4.90;;;31.60;30.70;;;;;;4978692;28;20069;-74
2023/06/08 12:30:24;;;;;;;5.65;4.47;;;31.80;30.50;;;;;;4977092;28;20034;-74
2023/06/08 12:32:51;;;;;;;8.27;4.95;;;31.80;30.80;;;;;;4997471;28;20028;-74
2023/06/08 12:35:17;;;;;;;7.90;4.68;;;31.70;30.70;;;;;;4981140;28;20042;-74
2023/06/08 12:37:48;;;;;;;7.40;4.80;;;31.70;31.30;;;;;;4980403;28;20022;-75
2023/06/08 12:40:18;;;;;;;6.30;4.60;;;31.70;31.40;;;;;;4993473;28;20031;-74
2023/06/08 12:42:48;;;;;;;7.55;4.70;;;31.80;29.90;;;;;;4968871;28;20056;-74
2023/06/08 12:45:16;;;;;;;8.63;4.70;;;31.80;30.90;;;;;;4994682;28;20034;-74
2023/06/08 12:47:44;;;;;;;5.97;4.68;;;31.80;31.40;;;;;;4980665;28;20026;-74
2023/06/08 12:50:11;;;;;;;5.13;4.22;;;31.60;31.00;;;;;;4979983;28;20531;-75
2023/06/08 12:52:37;;;;;;;5.63;4.53;;;31.40;29.50;;;;;;4976063;28;20069;-75
2023/06/08 12:55:04;;;;;;;6.80;4.43;;;31.30;29.80;;;;;;4978523;28;20019;-75
2023/06/08 12:57:30;;;;;;;5.20;4.65;;;31.30;31.10;;;;;;4960924;28;20101;-75
2023/06/08 12:59:56;;;;;;;6.70;4.90;;;31.30;29.90;;;;;;4983912;28;20030;-75
2023/06/08 13:02:22;;;;;;;6.68;4.85;;;31.40;30.00;;;;;;4997629;28;20026;-75
2023/06/08 13:04:48;;;;;;;7.20;5.13;;;31.30;29.80;;;;;;4997031;28;20021;-75
2023/06/08 13:07:13;;;;;;;6.85;4.60;;;31.40;29.90;;;;;;4997185;28;20030;-76
2023/06/08 13:09:40;;;;;;;5.47;4.40;;;31.40;31.10;;;;;;4996099;28;20018;-76
2023/06/08 13:12:06;;;;;;;5.57;4.50;;;31.40;30.20;;;;;;4977026;28;20026;-76
2023/06/08 13:14:33;;;;;;;7.13;4.45;;;31.50;30.20;;;;;;4977941;28;20034;-77
2023/06/08 13:17:01;;;;;;;6.55;4.53;;;31.50;30.70;;;;;;4977820;28;20026;-77
2023/06/08 13:19:27;;;;;;;7.32;4.55;;;31.60;30.80;;;;;;4977902;28;20489;-77
2023/06/08 13:21:53;;;;;;;5.20;4.50;;;31.50;30.70;;;;;;4960954;28;20409;-77
2023/06/08 13:24:20;;;;;;;6.47;5.07;;;31.30;29.80;;;;;;4985825;28;20061;-77
2023/06/08 13:26:47;;;;;;;11.40;4.60;;;31.30;29.90;;;;;;4997030;28;20026;-78
2023/06/08 13:29:14;;;;;;;6.20;4.38;;;31.10;30.10;;;;;;4976989;28;20108;-77
2023/06/08 13:31:40;;;;;;;6.03;4.47;;;31.10;28.90;;;;;;4977762;28;20054;-77
2023/06/08 13:34:07;;;;;;;10.68;5.07;;;31.10;30.40;;;;;;4976483;28;20039;-77
2023/06/08 13:36:33;;;;;;;5.72;4.90;;;31.30;30.90;;;;;;4974203;28;20035;-77
2023/06/08 13:39:00;;;;;;;7.57;4.88;;;31.40;32.00;;;;;;4996584;28;20022;-77
2023/06/08 13:41:26;;;;;;;7.75;5.03;;;31.20;29.60;;;;;;4997005;28;20023;-78
2023/06/08 13:43:52;;;;;;;6.32;4.85;;;31.20;29.90;;;;;;4992362;28;20029;-78
2023/06/08 13:46:17;;;;;;;6.18;4.50;;;31.40;31.30;;;;;;4996510;28;20042;-77
2023/06/08 13:48:43;;;;;;;6.78;4.55;;;31.30;30.10;;;;;;4994348;28;20034;-77
2023/06/08 13:51:09;;;;;;;7.00;4.90;;;31.40;30.80;;;;;;4977440;28;20031;-77
2023/06/08 13:53:35;;;;;;;9.38;6.18;;;31.40;30.50;;;;;;4977292;28;20502;-77
2023/06/08 13:56:01;;;;;;;6.65;5.18;;;31.50;31.00;;;;;;4977047;28;20027;-77
2023/06/08 13:58:26;;;;;;;6.25;4.72;;;31.50;29.60;;;;;;4973447;28;20054;-77
2023/06/08 14:00:52;;;;;;;6.38;4.70;;;31.50;30.80;;;;;;4978480;28;20039;-77
2023/06/08 14:03:18;;;;;;;6.30;4.40;;;31.50;30.30;;;;;;4996549;28;20018;-77
2023/06/08 14:05:43;;;;;;;6.45;5.45;;;31.50;30.80;;;;;;4991283;28;20030;-77
2023/06/08 14:08:09;;;;;;;8.30;4.55;;;31.60;31.60;;;;;;4996590;28;20049;-77
2023/06/08 14:10:35;;;;;;;7.15;4.70;;;31.80;30.60;;;;;;4973630;28;20026;-77
2023/06/08 14:13:00;;;;;;;7.43;5.20;;;31.80;30.80;;;;;;4996294;28;20595;-77
2023/06/08 14:15:26;;;;;;;9.00;4.93;;;31.60;29.80;;;;;;4978782;28;20034;-77
2023/06/08 14:17:55;;;;;;;5.82;4.70;;;31.50;30.40;;;;;;4988772;28;20026;-77
2023/06/08 14:20:21;;;;;;;6.07;4.50;;;31.40;30.90;;;;;;4958805;28;20030;-77
2023/06/08 14:22:46;;;;;;;5.88;4.90;;;31.30;30.80;;;;;;4981694;28;20097;-77
2023/06/08 14:25:12;;;;;;;6.97;4.60;;;31.30;30.20;;;;;;4979179;28;20507;-77
2023/06/08 14:27:38;;;;;;;7.38;4.53;;;31.30;31.20;;;;;;4996307;28;20023;-77
2023/06/08 14:30:05;;;;;;;6.20;4.63;;;31.40;30.70;;;;;;4996397;28;20130;-77
2023/06/08 14:32:31;;;;;;;5.30;4.50;;;31.30;30.90;;;;;;4978745;28;20043;-77
2023/06/08 14:34:56;;;;;;;7.38;4.65;;;31.30;30.80;;;;;;4977783;28;20088;-77
2023/06/08 14:37:22;;;;;;;6.32;4.78;;;31.30;31.50;;;;;;4995866;28;20080;-75
2023/06/08 14:39:48;;;;;;;8.68;4.82;;;31.30;31.00;;;;;;4993247;28;20062;-76
2023/06/08 14:42:13;;;;;;;5.50;4.55;;;31.30;31.50;;;;;;4991832;28;20082;-76
2023/06/08 14:44:40;;;;;;;7.15;4.80;;;31.50;31.70;;;;;;4996895;28;20057;-76
2023/06/08 14:47:06;;;;;;;6.95;4.90;;;31.40;30.20;;;;;;4999011;28;20018;-75
2023/06/08 14:49:36;;;;;;;6.85;4.78;;;31.40;30.60;;;;;;4982020;28;20070;-76
2023/06/08 14:52:02;;;;;;;6.45;4.80;;;31.30;30.70;;;;;;4982562;28;20034;-75
2023/06/08 14:54:27;;;;;;;6.53;4.78;;;31.40;30.70;;;;;;4972733;28;20493;-76
2023/06/08 14:56:53;;;;;;;5.45;4.47;;;31.20;30.10;;;;;;4979517;28;20019;-76
2023/06/08 14:59:18;;;;;;;6.00;4.60;;;31.20;30.00;;;;;;4980773;28;20778;-76
2023/06/08 15:01:44;;;;;;;6.47;4.90;;;31.10;30.80;;;;;;4993238;28;20027;-76
2023/06/08 15:04:10;;;;;;;7.55;4.78;;;31.20;31.30;;;;;;4992052;28;20030;-75
2023/06/08 15:06:36;;;;;;;6.95;4.75;;;31.30;30.80;;;;;;4993312;28;20105;-75
2023/06/08 15:09:02;;;;;;;6.47;4.85;;;31.10;30.40;;;;;;4999423;28;20102;-77
2023/06/08 15:11:27;;;;;;;6.05;4.43;;;31.20;30.50;;;;;;4996532;28;20027;-76
2023/06/08 15:13:53;;;;;;;8.70;4.95;;;31.30;30.90;;;;;;4997293;28;20040;-73
2023/06/08 15:16:19;;;;;;;6.85;5.00;;;31.20;30.10;;;;;;4996956;28;20035;-74
2023/06/08 15:18:44;;;;;;;7.28;4.90;;;31.30;31.30;;;;;;4977968;28;20029;-75
2023/06/08 15:21:11;;;;;;;6.88;4.68;;;31.50;31.00;;;;;;4996363;28;20026;-75
2023/06/08 15:23:37;;;;;;;6.20;4.75;;;31.50;30.80;;;;;;4998228;28;20484;-76
2023/06/08 15:26:03;;;;;;;5.60;4.68;;;31.80;31.30;;;;;;4997969;28;20030;-76
2023/06/08 15:28:28;;;;;;;6.20;4.85;;;31.70;30.50;;;;;;4995516;28;20069;-79
2023/06/08 15:30:54;;;;;;;6.03;4.82;;;31.60;29.80;;;;;;4997194;28;20125;-75
2023/06/08 15:33:20;;;;;;;6.20;5.13;;;31.40;29.90;;;;;;4995035;28;20031;-75
2023/06/08 15:35:45;;;;;;;6.03;4.82;;;31.30;30.50;;;;;;4995801;28;20015;-80
2023/06/08 15:38:12;;;;;;;6.38;5.15;;;31.40;31.60;;;;;;4997685;28;20018;-73
2023/06/08 15:40:38;;;;;;;6.40;4.97;;;31.50;31.00;;;;;;4995934;28;20036;-76
2023/06/08 15:43:04;;;;;;;10.13;4.88;;;31.40;30.30;;;;;;4978020;28;20034;-74
2023/06/08 15:45:29;;;;;;;5.97;4.82;;;31.40;30.80;;;;;;4975911;28;20033;-75
2023/06/08 15:47:55;;;;;;;6.40;4.70;;;31.30;31.20;;;;;;4997084;28;20057;-77
2023/06/08 15:50:21;;;;;;;5.90;4.43;;;31.30;31.00;;;;;;4996016;28;20109;-77
2023/06/08 15:52:46;;;;;;;6.05;4.70;;;31.30;30.70;;;;;;4997375;28;20149;-77
2023/06/08 15:55:12;;;;;;;6.07;4.90;;;31.20;31.10;;;;;;4993773;28;20716;-76
2023/06/08 15:57:38;;;;;;;6.97;5.03;;;31.10;30.50;;;;;;4994408;28;20033;-75
2023/06/08 16:00:04;;;;;;;7.93;4.78;;;31.10;31.90;;;;;;4966220;28;20019;-78
2023/06/08 16:02:30;;;;;;;7.85;5.00;;;31.00;32.30;;;;;;4994843;28;20109;-77
2023/06/08 16:04:55;;;;;;;5.45;4.63;;;31.00;31.00;;;;;;4995381;28;20547;-77
2023/06/08 16:07:21;;;;;;;6.15;4.88;;;30.90;32.00;;;;;;4995170;28;20097;-80
2023/06/08 16:09:46;;;;;;;5.85;5.10;;;30.80;32.60;;;;;;4972403;28;20037;-79
2023/06/08 16:12:12;;;;;;;6.53;4.82;;;30.70;32.60;;;;;;4987156;28;20030;-79
2023/06/08 16:14:38;;;;;;;6.47;4.93;;;30.70;33.00;;;;;;4987414;28;20037;-81
2023/06/08 16:17:04;;;;;;;7.85;4.97;;;30.70;33.20;;;;;;4997229;28;20034;-81
2023/06/08 16:19:29;;;;;;;5.40;4.40;;;30.60;33.10;;;;;;4996932;28;20050;-79
2023/06/08 16:21:55;;;;;;;7.63;4.90;;;30.50;32.60;;;;;;4992338;28;20034;-77
2023/06/08 16:24:28;;;;;;;5.82;4.75;;;30.40;33.70;;;;;;4996688;28;20377;-80
2023/06/08 16:26:54;;;;;;;6.47;5.25;;;30.40;34.70;;;;;;4989561;28;20038;-80
2023/06/08 16:29:21;;;;;;;6.78;4.85;;;30.30;33.90;;;;;;4995839;28;20029;-80
2023/06/08 16:31:50;;;;;;;7.20;4.95;;;30.30;32.90;;;;;;4990638;28;20133;-79
2023/06/08 16:34:17;;;;;;;8.30;5.32;;;30.30;32.40;;;;;;4985585;28;20152;-80
2023/06/08 16:36:43;;;;;;;6.53;5.22;;;30.20;33.70;;;;;;4996553;28;20026;-80
2023/06/08 16:39:09;;;;;;;6.80;5.00;;;30.20;33.60;;;;;;4987038;28;20091;-80
2023/06/08 16:41:34;;;;;;;8.50;5.13;;;30.20;33.20;;;;;;4974494;28;20043;-79
2023/06/08 16:44:01;;;;;;;7.05;5.05;;;30.20;33.00;;;;;;4980881;28;20026;-81
2023/06/08 16:46:26;;;;;;;6.88;4.85;;;30.30;33.40;;;;;;4978013;28;20073;-82
2023/06/08 16:48:52;;;;;;;6.57;5.05;;;30.30;33.20;;;;;;4996133;28;20038;-80
2023/06/08 16:51:18;;;;;;;6.78;5.38;;;30.30;33.40;;;;;;4989802;28;20049;-79
2023/06/08 16:53:44;;;;;;;6.35;5.10;;;30.30;33.80;;;;;;4993225;28;20022;-79
2023/06/08 16:56:10;;;;;;;8.35;5.43;;;30.20;33.80;;;;;;4974374;28;20023;-80
2023/06/08 16:58:36;;;;;;;9.52;4.90;;;30.30;33.30;;;;;;4975665;28;20053;-80
2023/06/08 17:01:03;;;;;;;8.57;4.93;;;30.30;33.80;;;;;;4992448;28;20081;-81
2023/06/08 17:03:28;;;;;;;6.45;4.70;;;30.30;33.80;;;;;;4996610;28;20393;-79
2023/06/08 17:05:54;;;;;;;8.20;4.78;;;30.30;33.50;;;;;;4990598;28;20034;-81
2023/06/08 17:08:20;;;;;;;6.40;4.70;;;30.30;33.30;;;;;;4986809;28;20104;-79
2023/06/08 17:10:45;;;;;;;7.00;4.95;;;30.30;33.80;;;;;;4974287;28;20034;-77
2023/06/08 17:13:12;;;;;;;5.88;5.20;;;30.30;33.30;;;;;;4993852;28;20097;-83
2023/06/08 17:15:38;;;;;;;5.72;4.80;;;30.30;33.80;;;;;;4985187;28;20052;-76